Flight OLY239

  • Submitted By: Stavros Sarikas
  • Departure Airport: Eleftherios Venizelos International Airport (LGAV)
  • Arrival Airport: FIUMICINO (LIRF)
  • Aircraft: A320-200 (SX-OAU)
  • Flight Time: 01.53
  • Date Submitted: 18/08/2017
  • Route: RILIN UN604 ARA UA14 KRK UL995 TEA UZ803 LAT
  • Status: Accepted
Flight Details
Gross Revenue:
(116 load / € 80.00 per unit
€ 9, 280.00
Fuel Cost:
(-2643 fuel used @ 0.19 / unit)
(€ -502.17)

Additional Log Information:

View Log

Aircraft Used in flight is Airbus A320 British Airways G-EUUU
18:42 Boarding
18:42 Navigation Lights ON at 320 Feet
18:42 Beacon Lights ON at 320 Feet
18:42 Brakes are On
18:43 In Air Refuel Suspected
18:48 Engine 2 Started
18:49 Engine 1 Started
18:50 Brakes are Released
18:50 Pushing back
18:50 Flaps 3 Selected at 320ft and 0kts
18:51 Taxi Lights ON at 320 Feet
18:52 Landing Lights ON at 320 AGL
18:52 Strobe Lights ON at 320 Feet
18:53 You Took off @ 143 Knots and Flaps at Position 3 With a heading of 37 Degrees
Departure Weather LGAV 181520Z 01018G28KT 9999 FEW025 32/07 Q1013 NOSIG
Departure Coordinates 37.9398914958661/ 23.9587914015445
Takeoff Weight=63659KG Fuel Weight=8816KG
18:53 Paused
18:53 TOC Reached
18:53 Unpaused
18:53 Landing Gear Up @ 154 Knots and 380 Feet
18:53 Taxi Lights OFF at 380 Feet
18:54 Flaps 2 Selected at 1390ft and 155kts
18:54 Flaps 0 Selected at 1730ft and 189kts
18:55 You exceeded maximum bank angle
18:57 Below 10000 feet you are not allowed to go over 250 knots
18:57 Above FL100 you need to switch of the landing lights
18:57 Landing Lights OFF at 10280 AGL
20:23 Landing Lights ON at 9800 AGL
20:29 Flaps 1 Selected at 3070ft and 199kts
20:31 Flaps 3 Selected at 1980ft and 185kts
20:31 Landing Gear Down @ 182 Knots and 1970 Feet
20:31 Flaps 4 Selected at 1900ft and 169kts
20:31 Taxi Lights ON at 1880 Feet
20:31 Flaps 5 Selected at 1860ft and 164kts
20:33 You Landed @ 146 Knots with -330 Vertical Speed With a heading of 343 and with 1.4608 G Force
Arrival Weather: LIRF 181720Z 25006KT CAVOK 28/21 Q1015 NOSIG
Arrival Coordinates 41.7878994222687/ 12.2379822844308
Landing Weight=59940KG Fuel Weight=5096KG
20:33 Paused
20:33 Taxiing to gate
20:34 Landing Lights OFF at 30 AGL
20:34 Strobe Lights OFF at 30 Feet
20:34 Flaps 0 Selected at 30ft and 20kts
20:35 Unpaused
20:35 Brakes are On
20:35 Engine 1 Stopped
20:35 Engine 2 Stopped
20:35 Brakes are Released
20:36 Taxi Lights OFF at 30 Feet
Pirep logged with OA Virtual Tracking 1.0.2.3

Route Map